sensor_id;sensor_type;location;lat;lon;timestamp;temperature;humidity
3713;DHT22;1872;51.406;6.856;2023-05-07T00:00:28;15.30;99.90
3713;DHT22;1872;51.406;6.856;2023-05-07T00:02:56;15.30;99.90
3713;DHT22;1872;51.406;6.856;2023-05-07T00:05:22;15.30;99.90
3713;DHT22;1872;51.406;6.856;2023-05-07T00:07:48;15.30;99.90
3713;DHT22;1872;51.406;6.856;2023-05-07T00:10:14;15.30;99.90
3713;DHT22;1872;51.406;6.856;2023-05-07T00:12:40;15.30;99.90
3713;DHT22;1872;51.406;6.856;2023-05-07T00:15:06;15.30;99.90
3713;DHT22;1872;51.406;6.856;2023-05-07T00:17:33;15.30;99.90
3713;DHT22;1872;51.406;6.856;2023-05-07T00:20:02;15.30;99.90
3713;DHT22;1872;51.406;6.856;2023-05-07T00:22:29;15.20;99.90
3713;DHT22;1872;51.406;6.856;2023-05-07T00:24:55;15.30;99.90
3713;DHT22;1872;51.406;6.856;2023-05-07T00:27:21;15.20;99.90
3713;DHT22;1872;51.406;6.856;2023-05-07T00:29:47;15.20;99.90
3713;DHT22;1872;51.406;6.856;2023-05-07T00:32:13;15.20;99.90
3713;DHT22;1872;51.406;6.856;2023-05-07T00:34:38;15.20;99.90
3713;DHT22;1872;51.406;6.856;2023-05-07T00:37:05;15.10;99.90
3713;DHT22;1872;51.406;6.856;2023-05-07T00:39:33;15.10;99.90
3713;DHT22;1872;51.406;6.856;2023-05-07T00:41:59;15.10;99.90
3713;DHT22;1872;51.406;6.856;2023-05-07T00:44:26;15.00;99.90
3713;DHT22;1872;51.406;6.856;2023-05-07T00:46:52;15.00;99.90
3713;DHT22;1872;51.406;6.856;2023-05-07T00:49:18;15.00;99.90
3713;DHT22;1872;51.406;6.856;2023-05-07T00:51:44;15.00;99.90
3713;DHT22;1872;51.406;6.856;2023-05-07T00:54:10;14.90;99.90
3713;DHT22;1872;51.406;6.856;2023-05-07T00:56:36;14.90;99.90
3713;DHT22;1872;51.406;6.856;2023-05-07T00:59:03;14.80;99.90
3713;DHT22;1872;51.406;6.856;2023-05-07T01:01:29;14.80;99.90
3713;DHT22;1872;51.406;6.856;2023-05-07T01:03:55;14.80;99.90
3713;DHT22;1872;51.406;6.856;2023-05-07T01:06:21;14.70;99.90
3713;DHT22;1872;51.406;6.856;2023-05-07T01:08:49;14.70;99.90
3713;DHT22;1872;51.406;6.856;2023-05-07T01:11:16;14.60;99.90
3713;DHT22;1872;51.406;6.856;2023-05-07T01:13:45;14.60;99.90
3713;DHT22;1872;51.406;6.856;2023-05-07T01:16:11;14.50;99.90
3713;DHT22;1872;51.406;6.856;2023-05-07T01:18:36;14.50;99.90
3713;DHT22;1872;51.406;6.856;2023-05-07T01:21:04;14.50;99.90
3713;DHT22;1872;51.406;6.856;2023-05-07T01:23:30;14.50;99.90
3713;DHT22;1872;51.406;6.856;2023-05-07T01:25:56;14.50;99.90
3713;DHT22;1872;51.406;6.856;2023-05-07T01:28:22;14.40;99.90
3713;DHT22;1872;51.406;6.856;2023-05-07T01:31:02;14.50;99.90
3713;DHT22;1872;51.406;6.856;2023-05-07T01:33:31;14.40;99.90
3713;DHT22;1872;51.406;6.856;2023-05-07T01:35:57;14.50;99.90
3713;DHT22;1872;51.406;6.856;2023-05-07T01:38:25;14.40;99.90
3713;DHT22;1872;51.406;6.856;2023-05-07T01:40:52;14.40;99.90
3713;DHT22;1872;51.406;6.856;2023-05-07T01:43:19;14.40;99.90
3713;DHT22;1872;51.406;6.856;2023-05-07T01:45:45;14.40;99.90
3713;DHT22;1872;51.406;6.856;2023-05-07T01:48:12;14.50;99.90
3713;DHT22;1872;51.406;6.856;2023-05-07T01:50:39;14.50;99.90
3713;DHT22;1872;51.406;6.856;2023-05-07T01:53:05;14.50;99.90
3713;DHT22;1872;51.406;6.856;2023-05-07T01:55:31;14.50;99.90
3713;DHT22;1872;51.406;6.856;2023-05-07T01:57:56;14.50;99.90
3713;DHT22;1872;51.406;6.856;2023-05-07T02:00:22;14.50;99.90
3713;DHT22;1872;51.406;6.856;2023-05-07T02:02:48;14.50;99.90
3713;DHT22;1872;51.406;6.856;2023-05-07T02:05:14;14.50;99.90
3713;DHT22;1872;51.406;6.856;2023-05-07T02:07:39;14.50;99.90
3713;DHT22;1872;51.406;6.856;2023-05-07T02:10:05;14.50;99.90
3713;DHT22;1872;51.406;6.856;2023-05-07T02:12:31;14.40;99.90
3713;DHT22;1872;51.406;6.856;2023-05-07T02:14:57;14.40;99.90
3713;DHT22;1872;51.406;6.856;2023-05-07T02:17:22;14.40;99.90
3713;DHT22;1872;51.406;6.856;2023-05-07T02:19:48;14.40;99.90
3713;DHT22;1872;51.406;6.856;2023-05-07T02:22:14;14.50;99.90
3713;DHT22;1872;51.406;6.856;2023-05-07T02:24:39;14.40;99.90
3713;DHT22;1872;51.406;6.856;2023-05-07T02:27:05;14.40;99.90
3713;DHT22;1872;51.406;6.856;2023-05-07T02:29:31;14.40;99.90
3713;DHT22;1872;51.406;6.856;2023-05-07T02:31:56;14.40;99.90
3713;DHT22;1872;51.406;6.856;2023-05-07T02:34:22;14.40;99.90
3713;DHT22;1872;51.406;6.856;2023-05-07T02:36:47;14.30;99.90
3713;DHT22;1872;51.406;6.856;2023-05-07T02:39:13;14.30;99.90
3713;DHT22;1872;51.406;6.856;2023-05-07T02:41:39;14.30;99.90
3713;DHT22;1872;51.406;6.856;2023-05-07T02:44:05;14.30;99.90
3713;DHT22;1872;51.406;6.856;2023-05-07T02:46:31;14.20;99.90
3713;DHT22;1872;51.406;6.856;2023-05-07T02:48:57;14.20;99.90
3713;DHT22;1872;51.406;6.856;2023-05-07T02:51:22;14.20;99.90
3713;DHT22;1872;51.406;6.856;2023-05-07T02:53:48;14.10;99.90
3713;DHT22;1872;51.406;6.856;2023-05-07T02:56:14;14.10;99.90
3713;DHT22;1872;51.406;6.856;2023-05-07T02:58:40;14.10;99.90
3713;DHT22;1872;51.406;6.856;2023-05-07T03:01:06;14.10;99.90
3713;DHT22;1872;51.406;6.856;2023-05-07T03:03:32;14.10;99.90
3713;DHT22;1872;51.406;6.856;2023-05-07T03:05:57;14.00;99.90
3713;DHT22;1872;51.406;6.856;2023-05-07T03:08:24;14.00;99.90
3713;DHT22;1872;51.406;6.856;2023-05-07T03:10:50;13.90;99.90
3713;DHT22;1872;51.406;6.856;2023-05-07T03:13:16;13.90;99.90
3713;DHT22;1872;51.406;6.856;2023-05-07T03:15:42;13.90;99.90
3713;DHT22;1872;51.406;6.856;2023-05-07T03:18:07;14.00;99.90
3713;DHT22;1872;51.406;6.856;2023-05-07T03:20:33;14.00;99.90
3713;DHT22;1872;51.406;6.856;2023-05-07T03:22:59;14.00;99.90
3713;DHT22;1872;51.406;6.856;2023-05-07T03:25:24;13.90;99.90
3713;DHT22;1872;51.406;6.856;2023-05-07T03:27:50;13.90;99.90
3713;DHT22;1872;51.406;6.856;2023-05-07T03:30:16;13.90;99.90
3713;DHT22;1872;51.406;6.856;2023-05-07T03:32:41;13.90;99.90
3713;DHT22;1872;51.406;6.856;2023-05-07T03:35:07;13.90;99.90
3713;DHT22;1872;51.406;6.856;2023-05-07T03:37:33;13.90;99.90
3713;DHT22;1872;51.406;6.856;2023-05-07T03:39:58;13.90;99.90
3713;DHT22;1872;51.406;6.856;2023-05-07T03:42:24;13.90;99.90
3713;DHT22;1872;51.406;6.856;2023-05-07T03:44:50;13.90;99.90
3713;DHT22;1872;51.406;6.856;2023-05-07T03:47:15;13.90;99.90
3713;DHT22;1872;51.406;6.856;2023-05-07T03:49:41;13.90;99.90
3713;DHT22;1872;51.406;6.856;2023-05-07T03:52:07;13.90;99.90
3713;DHT22;1872;51.406;6.856;2023-05-07T03:54:32;13.90;99.90
3713;DHT22;1872;51.406;6.856;2023-05-07T03:56:58;13.90;99.90
3713;DHT22;1872;51.406;6.856;2023-05-07T03:59:23;13.90;99.90
3713;DHT22;1872;51.406;6.856;2023-05-07T04:01:49;13.90;99.90
3713;DHT22;1872;51.406;6.856;2023-05-07T04:04:15;13.90;99.90
3713;DHT22;1872;51.406;6.856;2023-05-07T04:06:42;13.90;99.90
3713;DHT22;1872;51.406;6.856;2023-05-07T04:09:08;13.90;99.90
3713;DHT22;1872;51.406;6.856;2023-05-07T04:11:34;13.90;99.90
3713;DHT22;1872;51.406;6.856;2023-05-07T04:14:00;13.90;99.90
3713;DHT22;1872;51.406;6.856;2023-05-07T04:16:26;13.90;99.90
3713;DHT22;1872;51.406;6.856;2023-05-07T04:18:51;13.90;99.90
3713;DHT22;1872;51.406;6.856;2023-05-07T04:21:19;13.90;99.90
3713;DHT22;1872;51.406;6.856;2023-05-07T04:23:46;13.90;99.90
3713;DHT22;1872;51.406;6.856;2023-05-07T04:26:13;13.90;99.90
3713;DHT22;1872;51.406;6.856;2023-05-07T04:28:39;13.90;99.90
3713;DHT22;1872;51.406;6.856;2023-05-07T04:31:06;13.90;99.90
3713;DHT22;1872;51.406;6.856;2023-05-07T04:33:32;13.90;99.90
3713;DHT22;1872;51.406;6.856;2023-05-07T04:35:59;13.90;99.90
3713;DHT22;1872;51.406;6.856;2023-05-07T04:38:31;13.90;99.90
3713;DHT22;1872;51.406;6.856;2023-05-07T04:41:02;13.90;99.90
3713;DHT22;1872;51.406;6.856;2023-05-07T04:43:28;13.90;99.90
3713;DHT22;1872;51.406;6.856;2023-05-07T04:45:53;13.90;99.90
3713;DHT22;1872;51.406;6.856;2023-05-07T04:48:19;13.90;99.90
3713;DHT22;1872;51.406;6.856;2023-05-07T04:50:49;14.00;99.90
3713;DHT22;1872;51.406;6.856;2023-05-07T04:53:15;14.00;99.90
3713;DHT22;1872;51.406;6.856;2023-05-07T04:55:41;14.00;99.90
3713;DHT22;1872;51.406;6.856;2023-05-07T04:58:08;14.00;99.90
3713;DHT22;1872;51.406;6.856;2023-05-07T05:00:34;14.10;99.90
3713;DHT22;1872;51.406;6.856;2023-05-07T05:02:59;14.10;99.90
3713;DHT22;1872;51.406;6.856;2023-05-07T05:05:25;14.10;99.90
3713;DHT22;1872;51.406;6.856;2023-05-07T05:07:51;14.20;99.90
3713;DHT22;1872;51.406;6.856;2023-05-07T05:10:17;14.20;99.90
3713;DHT22;1872;51.406;6.856;2023-05-07T05:12:43;14.20;99.90
3713;DHT22;1872;51.406;6.856;2023-05-07T05:15:11;14.20;99.90
3713;DHT22;1872;51.406;6.856;2023-05-07T05:17:36;14.20;99.90
3713;DHT22;1872;51.406;6.856;2023-05-07T05:20:02;14.30;99.90
3713;DHT22;1872;51.406;6.856;2023-05-07T05:22:29;14.30;99.90
3713;DHT22;1872;51.406;6.856;2023-05-07T05:24:57;14.40;99.90
3713;DHT22;1872;51.406;6.856;2023-05-07T05:27:23;14.40;99.90
3713;DHT22;1872;51.406;6.856;2023-05-07T05:29:49;14.40;99.90
3713;DHT22;1872;51.406;6.856;2023-05-07T05:32:15;14.40;99.90
3713;DHT22;1872;51.406;6.856;2023-05-07T05:34:40;14.40;99.90
3713;DHT22;1872;51.406;6.856;2023-05-07T05:37:06;14.50;99.90
3713;DHT22;1872;51.406;6.856;2023-05-07T05:39:31;14.50;99.90
3713;DHT22;1872;51.406;6.856;2023-05-07T05:41:57;14.50;99.90
3713;DHT22;1872;51.406;6.856;2023-05-07T05:44:23;14.50;99.90
3713;DHT22;1872;51.406;6.856;2023-05-07T05:46:48;14.60;99.90
3713;DHT22;1872;51.406;6.856;2023-05-07T05:49:15;14.60;99.90
3713;DHT22;1872;51.406;6.856;2023-05-07T05:51:41;14.70;99.90
3713;DHT22;1872;51.406;6.856;2023-05-07T05:54:06;14.70;99.90
3713;DHT22;1872;51.406;6.856;2023-05-07T05:56:32;14.80;99.90
3713;DHT22;1872;51.406;6.856;2023-05-07T05:58:58;14.80;99.90
3713;DHT22;1872;51.406;6.856;2023-05-07T06:01:23;14.80;99.90
3713;DHT22;1872;51.406;6.856;2023-05-07T06:03:49;14.90;99.90
3713;DHT22;1872;51.406;6.856;2023-05-07T06:06:15;15.00;99.90
3713;DHT22;1872;51.406;6.856;2023-05-07T06:08:41;15.10;99.90
3713;DHT22;1872;51.406;6.856;2023-05-07T06:11:07;15.30;99.90
3713;DHT22;1872;51.406;6.856;2023-05-07T06:13:33;15.40;99.90
3713;DHT22;1872;51.406;6.856;2023-05-07T06:15:58;15.60;99.90
3713;DHT22;1872;51.406;6.856;2023-05-07T06:18:24;15.60;99.90
3713;DHT22;1872;51.406;6.856;2023-05-07T06:20:51;15.70;99.90
3713;DHT22;1872;51.406;6.856;2023-05-07T06:23:17;15.70;99.90
3713;DHT22;1872;51.406;6.856;2023-05-07T06:25:45;15.70;99.90
3713;DHT22;1872;51.406;6.856;2023-05-07T06:28:11;15.80;99.90
3713;DHT22;1872;51.406;6.856;2023-05-07T06:30:36;15.80;99.90
3713;DHT22;1872;51.406;6.856;2023-05-07T06:33:02;15.80;99.90
3713;DHT22;1872;51.406;6.856;2023-05-07T06:35:28;15.90;99.90
3713;DHT22;1872;51.406;6.856;2023-05-07T06:37:53;15.90;99.90
3713;DHT22;1872;51.406;6.856;2023-05-07T06:40:19;15.90;99.90
3713;DHT22;1872;51.406;6.856;2023-05-07T06:42:45;15.90;99.90
3713;DHT22;1872;51.406;6.856;2023-05-07T06:45:10;15.90;99.90
3713;DHT22;1872;51.406;6.856;2023-05-07T06:47:36;15.90;99.90
3713;DHT22;1872;51.406;6.856;2023-05-07T06:50:02;16.00;99.90
3713;DHT22;1872;51.406;6.856;2023-05-07T06:52:27;16.00;99.90
3713;DHT22;1872;51.406;6.856;2023-05-07T06:54:53;16.00;99.90
3713;DHT22;1872;51.406;6.856;2023-05-07T06:57:19;16.10;99.90
3713;DHT22;1872;51.406;6.856;2023-05-07T06:59:44;16.10;99.90
3713;DHT22;1872;51.406;6.856;2023-05-07T07:02:10;16.10;99.90
3713;DHT22;1872;51.406;6.856;2023-05-07T07:04:35;16.20;99.90
3713;DHT22;1872;51.406;6.856;2023-05-07T07:07:01;16.20;99.90
3713;DHT22;1872;51.406;6.856;2023-05-07T07:09:26;16.30;99.90
3713;DHT22;1872;51.406;6.856;2023-05-07T07:11:52;16.40;99.90
3713;DHT22;1872;51.406;6.856;2023-05-07T07:14:18;16.50;99.90
3713;DHT22;1872;51.406;6.856;2023-05-07T07:16:43;16.60;99.90
3713;DHT22;1872;51.406;6.856;2023-05-07T07:19:09;16.70;99.90
3713;DHT22;1872;51.406;6.856;2023-05-07T07:21:35;16.70;99.90
3713;DHT22;1872;51.406;6.856;2023-05-07T07:24:00;16.80;99.90
3713;DHT22;1872;51.406;6.856;2023-05-07T07:26:26;16.80;99.90
3713;DHT22;1872;51.406;6.856;2023-05-07T07:28:52;16.90;99.90
3713;DHT22;1872;51.406;6.856;2023-05-07T07:31:18;17.00;99.90
3713;DHT22;1872;51.406;6.856;2023-05-07T07:33:44;17.10;99.90
3713;DHT22;1872;51.406;6.856;2023-05-07T07:36:09;17.20;99.90
3713;DHT22;1872;51.406;6.856;2023-05-07T07:38:35;17.30;99.90
3713;DHT22;1872;51.406;6.856;2023-05-07T07:41:01;17.50;99.90
3713;DHT22;1872;51.406;6.856;2023-05-07T07:43:27;17.60;99.90
3713;DHT22;1872;51.406;6.856;2023-05-07T07:45:53;17.60;99.90
3713;DHT22;1872;51.406;6.856;2023-05-07T07:48:19;17.80;99.90
3713;DHT22;1872;51.406;6.856;2023-05-07T07:50:44;17.90;99.90
3713;DHT22;1872;51.406;6.856;2023-05-07T07:53:10;18.00;99.90
3713;DHT22;1872;51.406;6.856;2023-05-07T07:55:39;18.10;99.90
3713;DHT22;1872;51.406;6.856;2023-05-07T07:58:06;18.20;99.90
3713;DHT22;1872;51.406;6.856;2023-05-07T08:00:32;18.20;99.90
3713;DHT22;1872;51.406;6.856;2023-05-07T08:02:57;18.20;99.90
3713;DHT22;1872;51.406;6.856;2023-05-07T08:05:23;18.20;99.90
3713;DHT22;1872;51.406;6.856;2023-05-07T08:07:49;18.20;99.90
3713;DHT22;1872;51.406;6.856;2023-05-07T08:10:18;18.30;99.90
3713;DHT22;1872;51.406;6.856;2023-05-07T08:12:48;18.40;99.90
3713;DHT22;1872;51.406;6.856;2023-05-07T08:15:15;18.60;99.90
3713;DHT22;1872;51.406;6.856;2023-05-07T08:17:40;18.80;99.90
3713;DHT22;1872;51.406;6.856;2023-05-07T08:20:07;19.00;99.90
3713;DHT22;1872;51.406;6.856;2023-05-07T08:22:34;19.10;99.90
3713;DHT22;1872;51.406;6.856;2023-05-07T08:24:59;19.30;99.90
3713;DHT22;1872;51.406;6.856;2023-05-07T08:27:25;19.60;99.90
3713;DHT22;1872;51.406;6.856;2023-05-07T08:29:51;19.90;99.90
3713;DHT22;1872;51.406;6.856;2023-05-07T08:32:17;20.20;99.90
3713;DHT22;1872;51.406;6.856;2023-05-07T08:34:42;20.30;99.90
3713;DHT22;1872;51.406;6.856;2023-05-07T08:37:08;20.50;99.90
3713;DHT22;1872;51.406;6.856;2023-05-07T08:39:33;20.50;99.90
3713;DHT22;1872;51.406;6.856;2023-05-07T08:42:00;20.50;99.90
3713;DHT22;1872;51.406;6.856;2023-05-07T08:44:28;20.50;99.90
3713;DHT22;1872;51.406;6.856;2023-05-07T08:46:59;20.60;99.90
3713;DHT22;1872;51.406;6.856;2023-05-07T08:49:27;20.80;99.90
3713;DHT22;1872;51.406;6.856;2023-05-07T08:51:53;21.00;99.90
3713;DHT22;1872;51.406;6.856;2023-05-07T08:54:20;21.20;99.90
3713;DHT22;1872;51.406;6.856;2023-05-07T08:56:45;21.50;99.90
3713;DHT22;1872;51.406;6.856;2023-05-07T08:59:11;21.70;99.90
3713;DHT22;1872;51.406;6.856;2023-05-07T09:01:37;21.90;99.90
3713;DHT22;1872;51.406;6.856;2023-05-07T09:04:04;22.00;99.90
3713;DHT22;1872;51.406;6.856;2023-05-07T09:06:32;21.90;99.90
3713;DHT22;1872;51.406;6.856;2023-05-07T09:08:58;21.90;99.90
3713;DHT22;1872;51.406;6.856;2023-05-07T09:11:26;21.90;99.90
3713;DHT22;1872;51.406;6.856;2023-05-07T09:13:57;21.90;99.90
3713;DHT22;1872;51.406;6.856;2023-05-07T09:16:29;22.00;99.90
3713;DHT22;1872;51.406;6.856;2023-05-07T09:18:58;22.10;99.90
3713;DHT22;1872;51.406;6.856;2023-05-07T09:21:24;22.20;99.90
3713;DHT22;1872;51.406;6.856;2023-05-07T09:23:54;22.30;99.90
3713;DHT22;1872;51.406;6.856;2023-05-07T09:26:24;22.50;99.90
3713;DHT22;1872;51.406;6.856;2023-05-07T09:28:49;22.50;99.90
3713;DHT22;1872;51.406;6.856;2023-05-07T09:31:16;22.50;99.90
3713;DHT22;1872;51.406;6.856;2023-05-07T09:33:41;22.50;99.90
3713;DHT22;1872;51.406;6.856;2023-05-07T09:36:09;22.50;99.90
3713;DHT22;1872;51.406;6.856;2023-05-07T09:38:36;22.40;99.90
3713;DHT22;1872;51.406;6.856;2023-05-07T09:41:07;22.40;99.90
3713;DHT22;1872;51.406;6.856;2023-05-07T09:43:34;22.40;99.90
3713;DHT22;1872;51.406;6.856;2023-05-07T09:46:15;22.20;99.90
3713;DHT22;1872;51.406;6.856;2023-05-07T09:48:43;22.10;99.90
3713;DHT22;1872;51.406;6.856;2023-05-07T09:51:29;22.00;99.90
3713;DHT22;1872;51.406;6.856;2023-05-07T09:53:58;22.00;99.90
3713;DHT22;1872;51.406;6.856;2023-05-07T09:56:26;21.90;99.90
3713;DHT22;1872;51.406;6.856;2023-05-07T09:58:54;22.00;99.90
3713;DHT22;1872;51.406;6.856;2023-05-07T10:01:21;22.00;99.90
3713;DHT22;1872;51.406;6.856;2023-05-07T10:03:49;22.00;99.90
3713;DHT22;1872;51.406;6.856;2023-05-07T10:06:17;22.10;99.90
3713;DHT22;1872;51.406;6.856;2023-05-07T10:08:43;22.00;99.90
3713;DHT22;1872;51.406;6.856;2023-05-07T10:11:09;22.10;99.90
3713;DHT22;1872;51.406;6.856;2023-05-07T10:13:35;22.10;99.90
3713;DHT22;1872;51.406;6.856;2023-05-07T10:16:05;22.20;99.90
3713;DHT22;1872;51.406;6.856;2023-05-07T10:18:32;22.20;99.90
3713;DHT22;1872;51.406;6.856;2023-05-07T10:21:08;22.30;99.90
3713;DHT22;1872;51.406;6.856;2023-05-07T10:23:34;22.30;99.90
3713;DHT22;1872;51.406;6.856;2023-05-07T10:26:04;22.40;99.90
3713;DHT22;1872;51.406;6.856;2023-05-07T10:28:33;22.50;99.90
3713;DHT22;1872;51.406;6.856;2023-05-07T10:33:39;22.40;99.90
3713;DHT22;1872;51.406;6.856;2023-05-07T10:36:05;22.30;99.90
3713;DHT22;1872;51.406;6.856;2023-05-07T10:38:33;22.30;99.90
3713;DHT22;1872;51.406;6.856;2023-05-07T10:40:59;22.30;99.90
3713;DHT22;1872;51.406;6.856;2023-05-07T10:43:25;22.30;99.90
3713;DHT22;1872;51.406;6.856;2023-05-07T10:46:20;22.30;99.90
3713;DHT22;1872;51.406;6.856;2023-05-07T10:51:32;22.30;99.90
3713;DHT22;1872;51.406;6.856;2023-05-07T10:56:42;22.20;99.90
3713;DHT22;1872;51.406;6.856;2023-05-07T11:01:56;22.20;99.90
3713;DHT22;1872;51.406;6.856;2023-05-07T11:04:23;22.20;99.90
3713;DHT22;1872;51.406;6.856;2023-05-07T11:15:11;22.10;99.90
3713;DHT22;1872;51.406;6.856;2023-05-07T11:17:57;22.00;99.90
3713;DHT22;1872;51.406;6.856;2023-05-07T11:20:56;22.10;99.90
3713;DHT22;1872;51.406;6.856;2023-05-07T11:28:28;22.10;99.90
3713;DHT22;1872;51.406;6.856;2023-05-07T11:30:56;22.00;99.90
3713;DHT22;1872;51.406;6.856;2023-05-07T11:33:22;22.00;99.90
3713;DHT22;1872;51.406;6.856;2023-05-07T11:35:52;22.00;99.90
3713;DHT22;1872;51.406;6.856;2023-05-07T11:38:19;22.00;99.90
3713;DHT22;1872;51.406;6.856;2023-05-07T11:40:52;22.00;99.90
3713;DHT22;1872;51.406;6.856;2023-05-07T11:43:18;21.90;99.90
3713;DHT22;1872;51.406;6.856;2023-05-07T11:45:46;21.90;99.90
3713;DHT22;1872;51.406;6.856;2023-05-07T11:48:13;21.80;99.90
3713;DHT22;1872;51.406;6.856;2023-05-07T11:51:01;21.80;99.90
3713;DHT22;1872;51.406;6.856;2023-05-07T11:53:34;21.80;99.90
3713;DHT22;1872;51.406;6.856;2023-05-07T11:56:05;21.70;99.90
3713;DHT22;1872;51.406;6.856;2023-05-07T11:58:31;21.70;99.90
3713;DHT22;1872;51.406;6.856;2023-05-07T12:00:57;21.70;99.90
3713;DHT22;1872;51.406;6.856;2023-05-07T12:03:22;21.70;99.90
3713;DHT22;1872;51.406;6.856;2023-05-07T12:05:48;21.70;99.90
3713;DHT22;1872;51.406;6.856;2023-05-07T12:08:18;21.70;99.90
3713;DHT22;1872;51.406;6.856;2023-05-07T12:10:45;21.80;99.90
3713;DHT22;1872;51.406;6.856;2023-05-07T12:13:24;21.80;99.90
3713;DHT22;1872;51.406;6.856;2023-05-07T12:15:55;21.90;99.90
3713;DHT22;1872;51.406;6.856;2023-05-07T12:18:22;21.80;99.90
3713;DHT22;1872;51.406;6.856;2023-05-07T12:20:48;21.80;99.90
3713;DHT22;1872;51.406;6.856;2023-05-07T12:23:15;21.70;99.90
3713;DHT22;1872;51.406;6.856;2023-05-07T12:25:42;21.70;99.90
3713;DHT22;1872;51.406;6.856;2023-05-07T12:28:15;21.50;99.90
3713;DHT22;1872;51.406;6.856;2023-05-07T12:30:42;21.40;99.90
3713;DHT22;1872;51.406;6.856;2023-05-07T12:33:09;21.40;99.90
3713;DHT22;1872;51.406;6.856;2023-05-07T12:35:40;21.40;99.90
3713;DHT22;1872;51.406;6.856;2023-05-07T12:38:14;21.40;99.90
3713;DHT22;1872;51.406;6.856;2023-05-07T12:40:44;21.30;99.90
3713;DHT22;1872;51.406;6.856;2023-05-07T12:43:20;21.20;99.90
3713;DHT22;1872;51.406;6.856;2023-05-07T12:45:50;21.20;99.90
3713;DHT22;1872;51.406;6.856;2023-05-07T12:48:19;21.10;99.90
3713;DHT22;1872;51.406;6.856;2023-05-07T12:50:49;21.00;99.90
3713;DHT22;1872;51.406;6.856;2023-05-07T12:53:15;21.00;99.90
3713;DHT22;1872;51.406;6.856;2023-05-07T12:55:45;20.90;99.90
3713;DHT22;1872;51.406;6.856;2023-05-07T12:58:28;20.80;99.90
3713;DHT22;1872;51.406;6.856;2023-05-07T13:00:55;20.80;99.90
3713;DHT22;1872;51.406;6.856;2023-05-07T13:03:34;20.30;99.90
3713;DHT22;1872;51.406;6.856;2023-05-07T13:06:10;19.70;99.90
3713;DHT22;1872;51.406;6.856;2023-05-07T13:08:39;19.10;99.90
3713;DHT22;1872;51.406;6.856;2023-05-07T13:11:15;18.70;99.90
3713;DHT22;1872;51.406;6.856;2023-05-07T13:13:44;18.40;99.90
3713;DHT22;1872;51.406;6.856;2023-05-07T13:16:15;18.10;99.90
3713;DHT22;1872;51.406;6.856;2023-05-07T13:18:47;17.90;99.90
3713;DHT22;1872;51.406;6.856;2023-05-07T13:21:14;17.70;99.90
3713;DHT22;1872;51.406;6.856;2023-05-07T13:23:39;17.60;99.90
3713;DHT22;1872;51.406;6.856;2023-05-07T13:26:05;17.50;99.90
3713;DHT22;1872;51.406;6.856;2023-05-07T13:28:35;17.40;99.90
3713;DHT22;1872;51.406;6.856;2023-05-07T13:31:01;17.30;99.90
3713;DHT22;1872;51.406;6.856;2023-05-07T13:33:26;17.30;99.90
3713;DHT22;1872;51.406;6.856;2023-05-07T13:35:54;17.30;99.90
3713;DHT22;1872;51.406;6.856;2023-05-07T13:38:22;17.30;99.90
3713;DHT22;1872;51.406;6.856;2023-05-07T13:40:48;17.30;99.90
3713;DHT22;1872;51.406;6.856;2023-05-07T13:43:13;17.30;99.90
3713;DHT22;1872;51.406;6.856;2023-05-07T13:45:42;17.40;99.90
3713;DHT22;1872;51.406;6.856;2023-05-07T13:48:08;17.40;99.90
3713;DHT22;1872;51.406;6.856;2023-05-07T13:50:33;17.50;99.90
3713;DHT22;1872;51.406;6.856;2023-05-07T13:52:59;17.50;99.90
3713;DHT22;1872;51.406;6.856;2023-05-07T13:55:29;17.50;99.90
3713;DHT22;1872;51.406;6.856;2023-05-07T13:57:59;17.50;99.90
3713;DHT22;1872;51.406;6.856;2023-05-07T14:00:26;17.50;99.90
3713;DHT22;1872;51.406;6.856;2023-05-07T14:02:53;17.50;99.90
3713;DHT22;1872;51.406;6.856;2023-05-07T14:05:21;17.60;99.90
3713;DHT22;1872;51.406;6.856;2023-05-07T14:07:54;17.60;99.90
3713;DHT22;1872;51.406;6.856;2023-05-07T14:10:20;17.60;99.90
3713;DHT22;1872;51.406;6.856;2023-05-07T14:12:46;17.60;99.90
3713;DHT22;1872;51.406;6.856;2023-05-07T14:15:12;17.60;99.90
3713;DHT22;1872;51.406;6.856;2023-05-07T14:17:38;17.60;99.90
3713;DHT22;1872;51.406;6.856;2023-05-07T14:20:04;17.60;99.90
3713;DHT22;1872;51.406;6.856;2023-05-07T14:22:32;17.60;99.90
3713;DHT22;1872;51.406;6.856;2023-05-07T14:25:00;17.60;99.90
3713;DHT22;1872;51.406;6.856;2023-05-07T14:27:25;17.60;99.90
3713;DHT22;1872;51.406;6.856;2023-05-07T14:29:51;17.60;99.90
3713;DHT22;1872;51.406;6.856;2023-05-07T14:32:26;17.60;99.90
3713;DHT22;1872;51.406;6.856;2023-05-07T14:34:51;17.60;99.90
3713;DHT22;1872;51.406;6.856;2023-05-07T14:37:17;17.60;99.90
3713;DHT22;1872;51.406;6.856;2023-05-07T14:39:45;17.60;99.90
3713;DHT22;1872;51.406;6.856;2023-05-07T14:42:10;17.60;99.90
3713;DHT22;1872;51.406;6.856;2023-05-07T14:44:37;17.70;99.90
3713;DHT22;1872;51.406;6.856;2023-05-07T14:49:41;17.60;99.90
3713;DHT22;1872;51.406;6.856;2023-05-07T14:52:07;17.60;99.90
3713;DHT22;1872;51.406;6.856;2023-05-07T14:54:35;17.60;99.90
3713;DHT22;1872;51.406;6.856;2023-05-07T14:57:01;17.60;99.90
3713;DHT22;1872;51.406;6.856;2023-05-07T14:59:27;17.60;99.90
3713;DHT22;1872;51.406;6.856;2023-05-07T15:01:52;17.50;99.90
3713;DHT22;1872;51.406;6.856;2023-05-07T15:04:19;17.50;99.90
3713;DHT22;1872;51.406;6.856;2023-05-07T15:06:45;17.50;99.90
3713;DHT22;1872;51.406;6.856;2023-05-07T15:09:11;17.50;99.90
3713;DHT22;1872;51.406;6.856;2023-05-07T15:11:37;17.60;99.90
3713;DHT22;1872;51.406;6.856;2023-05-07T15:14:03;17.60;99.90
3713;DHT22;1872;51.406;6.856;2023-05-07T15:19:03;17.60;99.90
3713;DHT22;1872;51.406;6.856;2023-05-07T15:21:28;17.70;99.90
3713;DHT22;1872;51.406;6.856;2023-05-07T15:23:56;17.70;99.90
3713;DHT22;1872;51.406;6.856;2023-05-07T15:26:21;17.70;99.90
3713;DHT22;1872;51.406;6.856;2023-05-07T15:28:47;17.80;99.90
3713;DHT22;1872;51.406;6.856;2023-05-07T15:31:13;17.90;99.90
3713;DHT22;1872;51.406;6.856;2023-05-07T15:33:38;17.90;99.90
3713;DHT22;1872;51.406;6.856;2023-05-07T15:36:04;18.00;99.90
3713;DHT22;1872;51.406;6.856;2023-05-07T15:50:42;18.00;99.90
3713;DHT22;1872;51.406;6.856;2023-05-07T15:53:08;18.30;99.90
3713;DHT22;1872;51.406;6.856;2023-05-07T15:55:34;18.30;99.90
3713;DHT22;1872;51.406;6.856;2023-05-07T15:58:00;18.30;99.90
3713;DHT22;1872;51.406;6.856;2023-05-07T16:00:26;18.20;99.90
3713;DHT22;1872;51.406;6.856;2023-05-07T16:02:55;18.10;99.90
3713;DHT22;1872;51.406;6.856;2023-05-07T16:05:21;18.10;99.90
3713;DHT22;1872;51.406;6.856;2023-05-07T16:07:46;18.00;99.90
3713;DHT22;1872;51.406;6.856;2023-05-07T16:10:13;18.00;99.90
3713;DHT22;1872;51.406;6.856;2023-05-07T16:12:38;18.00;99.90
3713;DHT22;1872;51.406;6.856;2023-05-07T16:15:04;18.00;99.90
3713;DHT22;1872;51.406;6.856;2023-05-07T16:17:30;18.00;99.90
3713;DHT22;1872;51.406;6.856;2023-05-07T16:19:56;18.00;99.90
3713;DHT22;1872;51.406;6.856;2023-05-07T16:22:23;18.00;99.90
3713;DHT22;1872;51.406;6.856;2023-05-07T16:24:50;18.00;99.90
3713;DHT22;1872;51.406;6.856;2023-05-07T16:27:16;18.00;99.90
3713;DHT22;1872;51.406;6.856;2023-05-07T16:29:41;18.00;99.90
3713;DHT22;1872;51.406;6.856;2023-05-07T16:32:07;18.00;99.90
3713;DHT22;1872;51.406;6.856;2023-05-07T16:34:33;18.00;99.90
3713;DHT22;1872;51.406;6.856;2023-05-07T16:36:59;18.00;99.90
3713;DHT22;1872;51.406;6.856;2023-05-07T16:39:25;18.00;99.90
3713;DHT22;1872;51.406;6.856;2023-05-07T16:41:50;18.10;99.90